createdAt,value
2023-08-18T00:02:19.629Z,95562.41
2023-08-18T00:04:47.071Z,95558.66
2023-08-18T00:07:14.588Z,95558.66
2023-08-18T00:09:42.190Z,95557.84
2023-08-18T00:12:09.868Z,95558.53
2023-08-18T00:14:38.028Z,95560.63
2023-08-18T00:17:05.710Z,95557.25
2023-08-18T00:19:34.830Z,95562.03
2023-08-18T00:22:02.507Z,95566.25
2023-08-18T00:24:30.031Z,95555.31
2023-08-18T00:26:57.469Z,95564.53
2023-08-18T00:29:24.991Z,95558.28
2023-08-18T00:31:52.511Z,95561.56
2023-08-18T00:34:20.054Z,95555.50
2023-08-18T00:36:49.159Z,95555.69
2023-08-18T00:39:16.828Z,95552.81
2023-08-18T00:41:44.286Z,95550.91
2023-08-18T00:44:11.963Z,95554.69
2023-08-18T00:46:39.943Z,95546.00
2023-08-18T00:49:10.766Z,95546.44
2023-08-18T00:51:40.996Z,95555.69
2023-08-18T00:54:11.630Z,95555.06
2023-08-18T00:56:39.147Z,95545.94
2023-08-18T00:59:08.110Z,95547.13
2023-08-18T01:01:36.353Z,95545.94
2023-08-18T01:04:06.226Z,95539.88
2023-08-18T01:06:33.881Z,95541.13
2023-08-18T01:09:01.629Z,95544.75
2023-08-18T01:11:38.678Z,95542.44
2023-08-18T01:14:22.835Z,95542.56
2023-08-18T01:16:57.984Z,95542.16
2023-08-18T01:19:26.838Z,95545.03
2023-08-18T01:21:57.070Z,95537.28
2023-08-18T01:24:26.115Z,95543.56
2023-08-18T01:26:53.659Z,95542.19
2023-08-18T01:29:23.661Z,95543.94
2023-08-18T01:31:57.401Z,95546.75
2023-08-18T01:34:28.914Z,95544.72
2023-08-18T01:36:59.309Z,95546.22
2023-08-18T01:39:31.464Z,95540.13
2023-08-18T01:42:00.672Z,95543.91
2023-08-18T01:44:28.271Z,95543.28
2023-08-18T01:46:55.725Z,95545.88
2023-08-18T01:49:23.484Z,95539.72
2023-08-18T01:51:50.998Z,95541.69
2023-08-18T01:54:18.532Z,95540.09
2023-08-18T01:56:47.715Z,95535.34
2023-08-18T01:59:16.038Z,95533.13
2023-08-18T02:01:43.492Z,95526.78
2023-08-18T02:04:10.992Z,95540.28
2023-08-18T02:06:38.590Z,95536.81
2023-08-18T02:09:06.113Z,95529.97
2023-08-18T02:11:33.789Z,95526.97
2023-08-18T02:14:02.748Z,95533.53
2023-08-18T02:16:30.314Z,95528.66
2023-08-18T02:18:57.869Z,95523.91
2023-08-18T02:21:25.631Z,95531.84
2023-08-18T02:23:52.916Z,95528.47
2023-08-18T02:26:20.538Z,95534.53
2023-08-18T02:28:48.032Z,95531.06
2023-08-18T02:31:17.078Z,95536.91
2023-08-18T02:33:44.671Z,95537.78
2023-08-18T02:36:13.694Z,95539.78
2023-08-18T02:38:41.474Z,95536.03
2023-08-18T02:41:08.989Z,95534.25
2023-08-18T02:43:36.688Z,95541.22
2023-08-18T02:46:04.237Z,95540.13
2023-08-18T02:48:33.554Z,95538.03
2023-08-18T02:51:04.310Z,95545.19
2023-08-18T02:53:31.875Z,95543.78
2023-08-18T02:55:59.470Z,95539.09
2023-08-18T02:58:27.952Z,95543.78
2023-08-18T03:03:44.352Z,95537.31
2023-08-18T03:06:11.550Z,95537.81
2023-08-18T03:08:38.639Z,95530.16
2023-08-18T03:11:05.825Z,95531.16
2023-08-18T03:13:33.140Z,95532.47
2023-08-18T03:16:00.427Z,95531.16
2023-08-18T03:18:27.675Z,95527.38
2023-08-18T03:21:00.993Z,95530.06
2023-08-18T03:23:29.068Z,95532.41
2023-08-18T03:26:00.460Z,95531.84
2023-08-18T03:28:28.281Z,95537.06
2023-08-18T03:30:59.572Z,95532.13
2023-08-18T03:33:27.477Z,95540.69
2023-08-18T03:35:55.160Z,95536.69
2023-08-18T03:38:24.696Z,95539.94
2023-08-18T03:40:58.996Z,95537.50
2023-08-18T03:43:26.681Z,95538.69
2023-08-18T03:45:54.226Z,95534.47
2023-08-18T03:48:21.719Z,95535.66
2023-08-18T03:50:49.238Z,95542.56
2023-08-18T03:53:16.782Z,95550.13
2023-08-18T03:55:50.225Z,95541.09
2023-08-18T03:58:17.878Z,95546.13
2023-08-18T04:00:45.168Z,95550.25
2023-08-18T04:03:12.778Z,95542.78
2023-08-18T04:05:46.363Z,95540.69
2023-08-18T04:08:13.882Z,95542.47
2023-08-18T04:10:41.402Z,95547.44
2023-08-18T04:13:10.552Z,95543.75
2023-08-18T04:15:38.140Z,95554.47
2023-08-18T04:18:06.718Z,95547.81
2023-08-18T04:20:34.362Z,95554.25
2023-08-18T04:23:01.881Z,95548.94
2023-08-18T04:25:29.488Z,95550.91
2023-08-18T04:27:57.006Z,95554.47
2023-08-18T04:30:26.212Z,95548.34
2023-08-18T04:32:53.776Z,95553.91
2023-08-18T04:35:21.321Z,95553.91
2023-08-18T04:37:48.838Z,95552.38
2023-08-18T04:40:16.362Z,95553.56
2023-08-18T04:42:43.883Z,95547.84
2023-08-18T04:45:11.802Z,95551.69
2023-08-18T04:47:40.959Z,95552.09
2023-08-18T04:50:09.725Z,95555.28
2023-08-18T04:52:37.326Z,95558.63
2023-08-18T04:55:05.651Z,95564.50
2023-08-18T04:57:33.173Z,95554.63
2023-08-18T05:00:00.607Z,95555.22
2023-08-18T05:02:28.420Z,95558.41
2023-08-18T05:04:57.718Z,95560.22
2023-08-18T05:07:25.404Z,95563.91
2023-08-18T05:09:53.007Z,95564.59
2023-08-18T05:12:20.449Z,95562.63
2023-08-18T05:14:47.961Z,95566.16
2023-08-18T05:17:15.640Z,95572.97
2023-08-18T05:19:43.080Z,95565.13
2023-08-18T05:22:12.198Z,95574.25
2023-08-18T05:24:39.722Z,95571.31
2023-08-18T05:27:07.163Z,95566.50
2023-08-18T05:29:34.680Z,95565.72
2023-08-18T05:32:02.195Z,95570.19
2023-08-18T05:34:29.560Z,95578.50
2023-08-18T05:36:57.090Z,95570.16
2023-08-18T05:39:26.196Z,95569.44
2023-08-18T05:41:53.638Z,95577.25
2023-08-18T05:44:21.327Z,95572.00
2023-08-18T05:46:48.922Z,95583.63
2023-08-18T05:49:16.282Z,95582.44
2023-08-18T05:51:43.792Z,95571.31
2023-08-18T05:54:12.748Z,95585.56
2023-08-18T05:56:42.045Z,95587.88
2023-08-18T05:59:09.640Z,95585.84
2023-08-18T06:01:37.314Z,95588.72
2023-08-18T06:04:05.766Z,95590.34
2023-08-18T06:06:33.385Z,95591.03
2023-08-18T06:09:01.399Z,95588.53
2023-08-18T06:11:28.842Z,95590.75
2023-08-18T06:13:58.043Z,95591.38
2023-08-18T06:16:25.592Z,95596.13
2023-08-18T06:18:53.077Z,95595.63
2023-08-18T06:21:20.602Z,95598.78
2023-08-18T06:23:48.120Z,95602.59
2023-08-18T06:26:15.483Z,95600.69
2023-08-18T06:28:42.997Z,95599.59
2023-08-18T06:31:11.898Z,95605.19
2023-08-18T06:33:39.425Z,95602.47
2023-08-18T06:36:07.409Z,95601.66
2023-08-18T06:38:35.001Z,95605.34
2023-08-18T06:41:02.511Z,95609.03
2023-08-18T06:43:29.954Z,95611.44
2023-08-18T06:45:57.621Z,95610.94
2023-08-18T06:48:26.677Z,95606.72
2023-08-18T06:50:54.205Z,95608.38
2023-08-18T06:53:21.718Z,95606.66
2023-08-18T06:56:02.200Z,95604.13
2023-08-18T06:58:31.075Z,95608.00
2023-08-18T07:00:58.679Z,95600.38
2023-08-18T07:03:28.179Z,95601.00
2023-08-18T07:05:55.876Z,95597.94
2023-08-18T07:08:23.803Z,95596.00
2023-08-18T07:10:51.177Z,95598.31
2023-08-18T07:13:18.683Z,95601.91
2023-08-18T07:15:46.146Z,95608.22
2023-08-18T07:18:13.745Z,95618.09
2023-08-18T07:20:44.927Z,95613.16
2023-08-18T07:23:12.518Z,95615.91
2023-08-18T07:25:40.438Z,95612.09
2023-08-18T07:28:07.960Z,95606.22
2023-08-18T07:30:35.810Z,95612.38
2023-08-18T07:33:03.263Z,95602.59
2023-08-18T07:35:31.563Z,95605.75
2023-08-18T07:38:00.856Z,95608.03
2023-08-18T07:40:28.457Z,95614.16
2023-08-18T07:42:56.120Z,95616.72
2023-08-18T07:45:23.876Z,95616.19
2023-08-18T07:47:51.343Z,95624.16
2023-08-18T07:50:18.918Z,95619.63
2023-08-18T07:52:46.525Z,95623.72
2023-08-18T07:55:15.568Z,95627.56
2023-08-18T07:57:43.238Z,95623.63
2023-08-18T08:00:12.200Z,95623.34
2023-08-18T08:02:39.816Z,95614.97
2023-08-18T08:05:08.685Z,95622.59
2023-08-18T08:07:36.598Z,95609.56
2023-08-18T08:10:05.386Z,95614.97
2023-08-18T08:12:35.808Z,95610.03
2023-08-18T08:15:03.719Z,95612.13
2023-08-18T08:17:31.607Z,95614.19
2023-08-18T08:19:59.480Z,95626.72
2023-08-18T08:22:27.181Z,95620.34
2023-08-18T08:24:55.016Z,95614.94
2023-08-18T08:27:23.158Z,95623.69
2023-08-18T08:29:52.283Z,95625.22
2023-08-18T08:32:19.883Z,95618.63
2023-08-18T08:34:50.601Z,95622.06
2023-08-18T08:37:18.920Z,95610.47
2023-08-18T08:39:47.961Z,95616.25
2023-08-18T08:42:15.719Z,95619.09
2023-08-18T08:44:43.249Z,95614.00
2023-08-18T08:47:17.472Z,95613.69
2023-08-18T08:49:47.648Z,95627.06
2023-08-18T08:52:16.920Z,95626.47
2023-08-18T08:54:51.158Z,95618.34
2023-08-18T08:57:21.647Z,95613.41
2023-08-18T08:59:49.314Z,95616.41
2023-08-18T09:02:18.471Z,95611.34
2023-08-18T09:04:45.965Z,95610.69
2023-08-18T09:07:14.440Z,95613.44
2023-08-18T09:09:42.763Z,95605.28
2023-08-18T09:12:11.807Z,95616.94
2023-08-18T09:14:40.855Z,95614.13
2023-08-18T09:17:09.719Z,95613.28
2023-08-18T09:19:39.327Z,95610.41
2023-08-18T09:22:06.760Z,95609.88
2023-08-18T09:24:34.680Z,95601.78
2023-08-18T09:27:08.762Z,95610.56
2023-08-18T09:29:39.163Z,95604.34
2023-08-18T09:32:12.590Z,95609.00
2023-08-18T09:34:44.047Z,95614.19
2023-08-18T09:37:11.726Z,95607.94
2023-08-18T09:39:40.108Z,95608.25
2023-08-18T09:42:08.283Z,95601.56
2023-08-18T09:44:35.737Z,95598.84
2023-08-18T09:47:06.444Z,95597.38
2023-08-18T09:49:36.849Z,95600.78
2023-08-18T09:52:08.510Z,95592.28
2023-08-18T09:54:47.513Z,95592.13
2023-08-18T09:57:26.044Z,95592.44
2023-08-18T09:59:56.598Z,95594.84
2023-08-18T10:02:30.157Z,95596.03
2023-08-18T10:04:58.481Z,95593.56
2023-08-18T10:07:28.600Z,95591.16
2023-08-18T10:09:57.560Z,95585.75
2023-08-18T10:12:25.008Z,95585.22
2023-08-18T10:14:55.005Z,95589.97
2023-08-18T10:17:24.057Z,95576.31
2023-08-18T10:19:54.275Z,95568.19
2023-08-18T10:22:24.684Z,95575.34
2023-08-18T10:24:54.859Z,95570.28
2023-08-18T10:27:38.999Z,95571.00
2023-08-18T10:30:29.801Z,95575.00
2023-08-18T10:33:07.190Z,95564.22
2023-08-18T10:35:37.159Z,95562.13
2023-08-18T10:38:06.361Z,95561.06
2023-08-18T10:40:37.474Z,95555.50
2023-08-18T10:43:08.040Z,95561.16
2023-08-18T10:45:36.401Z,95558.78
2023-08-18T10:48:05.434Z,95557.31
2023-08-18T10:50:37.082Z,95554.81
2023-08-18T10:53:04.849Z,95558.63
2023-08-18T10:55:34.371Z,95559.34
2023-08-18T10:58:01.982Z,95550.16
2023-08-18T11:00:33.033Z,95553.84
2023-08-18T11:03:01.121Z,95557.25
2023-08-18T11:05:31.400Z,95549.25
2023-08-18T11:07:59.585Z,95541.22
2023-08-18T11:10:28.921Z,95541.28
2023-08-18T11:12:59.001Z,95542.84
2023-08-18T11:15:26.788Z,95520.22
2023-08-18T11:17:54.609Z,95530.22
2023-08-18T11:20:22.290Z,95519.91
2023-08-18T11:22:51.878Z,95523.94
2023-08-18T11:25:20.694Z,95518.63
2023-08-18T11:27:50.203Z,95511.28
2023-08-18T11:30:19.800Z,95510.19
2023-08-18T11:32:47.347Z,95509.81
2023-08-18T11:35:15.878Z,95514.19
2023-08-18T11:37:44.841Z,95508.25
2023-08-18T11:40:14.519Z,95510.31
2023-08-18T11:42:43.398Z,95508.66
2023-08-18T11:45:11.874Z,95503.03
2023-08-18T11:47:41.106Z,95503.88
2023-08-18T11:50:09.089Z,95502.03
2023-08-18T11:52:44.928Z,95506.53
2023-08-18T11:55:13.647Z,95494.69
2023-08-18T11:57:43.398Z,95500.53
2023-08-18T12:00:14.362Z,95493.19
2023-08-18T12:02:45.085Z,95491.31
2023-08-18T12:05:22.615Z,95495.44
2023-08-18T12:07:52.201Z,95484.22
2023-08-18T12:10:20.359Z,95485.78
2023-08-18T12:12:58.541Z,95483.66
2023-08-18T12:15:27.114Z,95474.44
2023-08-18T12:17:56.287Z,95473.66
2023-08-18T12:20:24.214Z,95474.44
2023-08-18T12:22:53.889Z,95478.19
2023-08-18T12:25:22.204Z,95481.81
2023-08-18T12:27:50.681Z,95480.06
2023-08-18T12:30:19.978Z,95475.56
2023-08-18T12:32:48.890Z,95477.16
2023-08-18T12:35:18.513Z,95474.44
2023-08-18T12:37:46.048Z,95475.44
2023-08-18T12:40:13.973Z,95478.38
2023-08-18T12:42:42.813Z,95470.47
2023-08-18T12:45:11.957Z,95469.84
2023-08-18T12:47:40.313Z,95467.22
2023-08-18T12:50:08.764Z,95462.13
2023-08-18T12:52:37.722Z,95464.34
2023-08-18T12:55:05.960Z,95459.41
2023-08-18T12:57:33.490Z,95451.19
2023-08-18T13:00:01.003Z,95448.13
2023-08-18T13:02:28.933Z,95434.94
2023-08-18T13:04:56.928Z,95441.81
2023-08-18T13:07:25.801Z,95443.69
2023-08-18T13:09:54.920Z,95437.41
2023-08-18T13:12:24.137Z,95443.28
2023-08-18T13:14:51.660Z,95443.25
2023-08-18T13:17:19.102Z,95434.25
2023-08-18T13:19:49.139Z,95438.84
2023-08-18T13:22:17.401Z,95433.69
2023-08-18T13:24:44.840Z,95437.75
2023-08-18T13:27:13.880Z,95438.69
2023-08-18T13:29:41.400Z,95437.84
2023-08-18T13:32:08.838Z,95444.06
2023-08-18T13:34:36.437Z,95446.59
2023-08-18T13:37:03.973Z,95432.66
2023-08-18T13:39:31.389Z,95440.56
2023-08-18T13:41:58.793Z,95434.34
2023-08-18T13:44:28.127Z,95432.44
2023-08-18T13:46:55.562Z,95435.47
2023-08-18T13:49:23.160Z,95431.66
2023-08-18T13:51:50.761Z,95433.00
2023-08-18T13:54:18.445Z,95434.91
2023-08-18T13:56:46.142Z,95429.72
2023-08-18T13:59:14.039Z,95435.16
2023-08-18T14:01:43.240Z,95441.56
2023-08-18T14:04:10.842Z,95438.84
2023-08-18T14:06:38.368Z,95430.84
2023-08-18T14:09:06.203Z,95427.56
2023-08-18T14:11:33.798Z,95430.00
2023-08-18T14:14:01.238Z,95428.34
2023-08-18T14:16:29.141Z,95420.91
2023-08-18T14:18:58.440Z,95424.75
2023-08-18T14:21:27.002Z,95429.25
2023-08-18T14:23:54.681Z,95425.31
2023-08-18T14:26:22.277Z,95424.84
2023-08-18T14:28:49.885Z,95422.69
2023-08-18T14:31:18.138Z,95422.25
2023-08-18T14:33:47.356Z,95415.16
2023-08-18T14:36:16.923Z,95412.31
2023-08-18T14:38:44.611Z,95404.50
2023-08-18T14:41:12.222Z,95410.06
2023-08-18T14:43:39.908Z,95408.22
2023-08-18T14:46:07.550Z,95409.94
2023-08-18T14:48:35.241Z,95407.03
2023-08-18T14:51:02.768Z,95398.53
2023-08-18T14:53:31.728Z,95395.84
2023-08-18T14:55:59.343Z,95392.38
2023-08-18T14:58:27.809Z,95384.66
2023-08-18T15:00:55.806Z,95384.03
2023-08-18T15:03:24.067Z,95387.34
2023-08-18T15:05:51.810Z,95379.47
2023-08-18T15:08:20.450Z,95373.81
2023-08-18T15:10:49.768Z,95369.63
2023-08-18T15:13:17.321Z,95377.28
2023-08-18T15:15:44.911Z,95372.78
2023-08-18T15:18:12.580Z,95377.16
2023-08-18T15:20:40.135Z,95374.91
2023-08-18T15:23:07.641Z,95379.13
2023-08-18T15:25:36.765Z,95367.59
2023-08-18T15:28:06.358Z,95366.94
2023-08-18T15:30:33.804Z,95362.59
2023-08-18T15:33:01.425Z,95356.66
2023-08-18T15:35:28.840Z,95358.41
2023-08-18T15:37:56.281Z,95351.56
2023-08-18T15:40:23.804Z,95349.31
2023-08-18T15:42:51.328Z,95349.72
2023-08-18T15:45:20.391Z,95344.78
2023-08-18T15:47:47.917Z,95353.28
2023-08-18T15:50:15.644Z,95354.16
2023-08-18T15:52:42.846Z,95348.84
2023-08-18T15:55:10.525Z,95341.72
2023-08-18T15:57:38.044Z,95348.22
2023-08-18T16:00:07.092Z,95349.63
2023-08-18T16:02:36.049Z,95341.50
2023-08-18T16:05:03.723Z,95347.38
2023-08-18T16:07:31.525Z,95344.88
2023-08-18T16:09:59.515Z,95347.59
2023-08-18T16:12:27.162Z,95343.44
2023-08-18T16:17:25.223Z,95337.66
2023-08-18T16:19:54.440Z,95339.56
2023-08-18T16:22:21.882Z,95342.41
2023-08-18T16:24:49.409Z,95342.06
2023-08-18T16:27:16.926Z,95334.94
2023-08-18T16:29:44.283Z,95333.03
2023-08-18T16:32:11.801Z,95334.13
2023-08-18T16:34:39.170Z,95339.69
2023-08-18T16:37:08.286Z,95329.75
2023-08-18T16:39:35.723Z,95335.94
2023-08-18T16:42:03.323Z,95333.69
2023-08-18T16:44:30.846Z,95331.22
2023-08-18T16:46:59.566Z,95334.59
2023-08-18T16:49:28.129Z,95337.44
2023-08-18T16:51:55.568Z,95335.03
2023-08-18T16:54:24.314Z,95338.19
2023-08-18T16:56:52.125Z,95332.78
2023-08-18T16:59:19.579Z,95335.03
2023-08-18T17:01:47.092Z,95331.22
2023-08-18T17:04:15.126Z,95332.56
2023-08-18T17:06:42.763Z,95332.78
2023-08-18T17:09:10.292Z,95329.19
2023-08-18T17:11:41.164Z,95341.84
2023-08-18T17:14:08.684Z,95339.38
2023-08-18T17:16:36.216Z,95342.19
2023-08-18T17:19:03.721Z,95344.81
2023-08-18T17:21:31.244Z,95351.00
2023-08-18T17:23:58.759Z,95354.81
2023-08-18T17:26:26.288Z,95349.28
2023-08-18T17:28:55.164Z,95354.03
2023-08-18T17:31:22.843Z,95355.13
2023-08-18T17:33:50.370Z,95356.47
2023-08-18T17:36:17.681Z,95361.78
2023-08-18T17:38:45.083Z,95359.94
2023-08-18T17:41:12.763Z,95350.84
2023-08-18T17:43:40.216Z,95355.06
2023-08-18T17:46:09.337Z,95359.56
2023-08-18T17:48:36.861Z,95353.25
2023-08-18T17:51:05.165Z,95356.59
2023-08-18T17:53:33.813Z,95359.31
2023-08-18T17:56:01.971Z,95353.41
2023-08-18T17:58:29.482Z,95352.94
2023-08-18T18:01:00.041Z,95359.81
2023-08-18T18:03:29.333Z,95351.25
2023-08-18T18:05:56.883Z,95348.44
2023-08-18T18:08:25.081Z,95344.00
2023-08-18T18:10:52.605Z,95337.56
2023-08-18T18:13:20.125Z,95337.75
2023-08-18T18:15:49.134Z,95338.34
2023-08-18T18:18:16.785Z,95341.03
2023-08-18T18:20:45.811Z,95349.28
2023-08-18T18:23:13.326Z,95359.53
2023-08-18T18:25:40.840Z,95353.72
2023-08-18T18:28:08.209Z,95356.09
2023-08-18T18:30:36.857Z,95353.84
2023-08-18T18:33:05.208Z,95359.25
2023-08-18T18:35:32.933Z,95349.28
2023-08-18T18:38:02.962Z,95354.97
2023-08-18T18:40:31.418Z,95353.47
2023-08-18T18:42:58.842Z,95356.22
2023-08-18T18:45:26.525Z,95364.41
2023-08-18T18:47:54.071Z,95366.03
2023-08-18T18:50:21.679Z,95364.38
2023-08-18T18:52:49.380Z,95369.66
2023-08-18T18:55:18.532Z,95369.50
2023-08-18T18:57:46.061Z,95366.63
2023-08-18T19:00:15.252Z,95367.59
2023-08-18T19:02:43.092Z,95373.47
2023-08-18T19:05:10.842Z,95383.47
2023-08-18T19:07:38.520Z,95379.53
2023-08-18T19:10:07.414Z,95378.44
2023-08-18T19:12:37.003Z,95383.31
2023-08-18T19:15:05.315Z,95382.81
2023-08-18T19:17:33.168Z,95391.72
2023-08-18T19:20:00.710Z,95383.94
2023-08-18T19:22:33.735Z,95385.84
2023-08-18T19:25:01.737Z,95383.31
2023-08-18T19:27:31.391Z,95381.59
2023-08-18T19:30:00.933Z,95387.47
2023-08-18T19:32:28.566Z,95386.56
2023-08-18T19:34:56.207Z,95390.88
2023-08-18T19:37:23.802Z,95388.84
2023-08-18T19:39:51.164Z,95395.00
2023-08-18T19:42:18.764Z,95397.41
2023-08-18T19:44:46.283Z,95393.44
2023-08-18T19:47:15.330Z,95391.41
2023-08-18T19:49:43.002Z,95394.72
2023-08-18T19:52:10.525Z,95394.25
2023-08-18T19:54:37.960Z,95394.25
2023-08-18T19:57:05.569Z,95399.69
2023-08-18T19:59:33.257Z,95405.38
2023-08-18T20:02:00.760Z,95400.13
2023-08-18T20:04:30.304Z,95406.31
2023-08-18T20:06:57.888Z,95401.44
2023-08-18T20:09:26.442Z,95405.72
2023-08-18T20:11:54.041Z,95404.19
2023-08-18T20:14:21.572Z,95401.66
2023-08-18T20:16:49.072Z,95403.41
2023-08-18T20:19:17.246Z,95402.41
2023-08-18T20:21:46.448Z,95399.41
2023-08-18T20:24:13.882Z,95400.38
2023-08-18T20:26:41.401Z,95406.44
2023-08-18T20:29:08.846Z,95417.03
2023-08-18T20:31:36.292Z,95412.63
2023-08-18T20:34:03.967Z,95415.72
2023-08-18T20:36:31.561Z,95415.59
2023-08-18T20:39:00.524Z,95414.94
2023-08-18T20:41:28.122Z,95423.50
2023-08-18T20:43:55.738Z,95417.81
2023-08-18T20:46:23.310Z,95432.44
2023-08-18T20:48:51.017Z,95429.13
2023-08-18T20:51:18.540Z,95430.44
2023-08-18T20:53:49.008Z,95434.13
2023-08-18T20:56:18.222Z,95431.44
2023-08-18T20:58:45.747Z,95435.75
2023-08-18T21:01:13.265Z,95430.16
2023-08-18T21:03:41.415Z,95437.31
2023-08-18T21:06:09.101Z,95438.50
2023-08-18T21:08:36.544Z,95437.94
2023-08-18T21:11:03.910Z,95438.44
2023-08-18T21:13:33.360Z,95436.53
2023-08-18T21:16:01.442Z,95437.16
2023-08-18T21:18:29.187Z,95437.78
2023-08-18T21:20:57.184Z,95438.72
2023-08-18T21:23:24.628Z,95445.72
2023-08-18T21:25:52.544Z,95449.31
2023-08-18T21:28:20.062Z,95443.06
2023-08-18T21:30:49.024Z,95451.50
2023-08-18T21:33:16.619Z,95448.97
2023-08-18T21:35:45.418Z,95455.84
2023-08-18T21:38:12.863Z,95453.16
2023-08-18T21:40:40.307Z,95452.34
2023-08-18T21:43:07.821Z,95456.34
2023-08-18T21:45:35.313Z,95459.50
2023-08-18T21:48:04.892Z,95465.47
2023-08-18T21:50:32.384Z,95469.44
2023-08-18T21:52:59.901Z,95460.59
2023-08-18T21:55:27.418Z,95461.88
2023-08-18T21:57:54.940Z,95459.06
2023-08-18T22:00:22.393Z,95460.63
2023-08-18T22:02:50.150Z,95462.69
2023-08-18T22:05:19.177Z,95464.75
2023-08-18T22:07:46.737Z,95467.81
2023-08-18T22:10:15.534Z,95471.16
2023-08-18T22:12:43.978Z,95470.44
2023-08-18T22:15:11.748Z,95471.72
2023-08-18T22:17:39.396Z,95468.63
2023-08-18T22:20:08.979Z,95473.13
2023-08-18T22:22:38.451Z,95469.13
2023-08-18T22:25:07.108Z,95476.16
2023-08-18T22:27:34.703Z,95474.44
2023-08-18T22:30:02.154Z,95479.56
2023-08-18T22:32:30.078Z,95478.97
2023-08-18T22:34:58.323Z,95486.44
2023-08-18T22:37:26.458Z,95479.63
2023-08-18T22:39:56.864Z,95485.63
2023-08-18T22:42:24.389Z,95483.91
2023-08-18T22:44:51.977Z,95485.63
2023-08-18T22:47:19.577Z,95487.22
2023-08-18T22:49:48.217Z,95487.81
2023-08-18T22:52:15.818Z,95490.50
2023-08-18T22:54:43.417Z,95485.66
2023-08-18T22:57:13.257Z,95496.78
2023-08-18T22:59:40.882Z,95498.41
2023-08-18T23:02:09.033Z,95503.91
2023-08-18T23:04:36.621Z,95508.06
2023-08-18T23:07:04.285Z,95510.41
2023-08-18T23:09:32.457Z,95508.75
2023-08-18T23:11:59.907Z,95513.28
2023-08-18T23:14:28.863Z,95509.34
2023-08-18T23:16:56.606Z,95510.09
2023-08-18T23:19:24.236Z,95507.28
2023-08-18T23:21:51.739Z,95512.88
2023-08-18T23:24:19.340Z,95511.81
2023-08-18T23:26:46.785Z,95508.38
2023-08-18T23:29:14.293Z,95508.91
2023-08-18T23:31:43.340Z,95515.88
2023-08-18T23:34:10.703Z,95515.22
2023-08-18T23:36:38.220Z,95507.63
2023-08-18T23:39:06.461Z,95514.47
2023-08-18T23:41:33.837Z,95520.91
2023-08-18T23:44:01.341Z,95516.53
2023-08-18T23:46:28.886Z,95527.56
2023-08-18T23:48:57.912Z,95526.66
2023-08-18T23:51:25.513Z,95523.38
2023-08-18T23:53:53.028Z,95519.97
2023-08-18T23:56:20.316Z,95521.63
2023-08-18T23:58:47.905Z,95519.16
